createdAt,value
2023-01-13T00:00:20.613Z,8.21
2023-01-13T00:05:44.569Z,8.17
2023-01-13T00:10:51.437Z,8.14
2023-01-13T00:16:05.249Z,8.11
2023-01-13T00:21:15.609Z,8.16
2023-01-13T00:26:26.842Z,8.20
2023-01-13T00:31:31.522Z,8.21
2023-01-13T00:36:35.407Z,8.21
2023-01-13T00:41:57.978Z,8.18
2023-01-13T00:47:02.246Z,8.12
2023-01-13T00:52:06.345Z,8.05
2023-01-13T00:57:10.338Z,8.07
2023-01-13T01:02:14.182Z,8.03
2023-01-13T01:07:18.181Z,8.05
2023-01-13T01:12:21.937Z,8.03
2023-01-13T01:17:25.832Z,8.15
2023-01-13T01:22:29.610Z,8.17
2023-01-13T01:27:33.348Z,8.12
2023-01-13T01:32:36.938Z,8.11
2023-01-13T01:37:40.664Z,8.08
2023-01-13T01:43:02.727Z,8.07
2023-01-13T01:48:08.488Z,8.08
2023-01-13T01:53:21.772Z,8.05
2023-01-13T01:58:42.624Z,8.03
2023-01-13T02:03:58.278Z,7.91
2023-01-13T02:09:02.203Z,7.83
2023-01-13T02:14:06.093Z,7.67
2023-01-13T02:19:21.833Z,7.63
2023-01-13T02:25:10.615Z,7.55
2023-01-13T02:30:48.322Z,7.47
2023-01-13T02:36:13.050Z,7.43
2023-01-13T02:41:51.417Z,7.45
2023-01-13T02:47:20.608Z,7.47
2023-01-13T02:52:36.617Z,7.40
2023-01-13T02:57:43.360Z,7.35
2023-01-13T03:02:49.289Z,7.37
2023-01-13T03:08:04.420Z,7.42
2023-01-13T03:14:04.679Z,7.45
2023-01-13T03:19:49.040Z,7.51
2023-01-13T03:25:07.809Z,7.54
2023-01-13T03:30:29.871Z,7.57
2023-01-13T03:35:44.475Z,7.59
2023-01-13T03:41:01.677Z,7.63
2023-01-13T03:46:27.275Z,7.67
2023-01-13T03:51:34.386Z,7.67
2023-01-13T03:56:59.909Z,7.68
2023-01-13T04:02:20.077Z,7.70
2023-01-13T04:07:48.422Z,7.70
2023-01-13T04:13:08.344Z,7.70
2023-01-13T04:18:26.504Z,7.71
2023-01-13T04:23:30.314Z,7.73
2023-01-13T04:28:35.411Z,7.75
2023-01-13T04:33:39.091Z,7.77
2023-01-13T04:38:42.906Z,7.77
2023-01-13T04:43:46.481Z,7.79
2023-01-13T04:48:50.227Z,7.81
2023-01-13T04:53:53.866Z,7.79
2023-01-13T04:58:57.459Z,7.82
2023-01-13T05:04:01.175Z,7.84
2023-01-13T05:09:04.963Z,7.86
2023-01-13T05:14:27.801Z,7.87
2023-01-13T05:19:35.384Z,7.87
2023-01-13T05:24:57.736Z,7.88
2023-01-13T05:30:02.070Z,7.89
2023-01-13T05:35:05.961Z,7.92
2023-01-13T05:40:31.888Z,7.90
2023-01-13T05:45:35.629Z,7.89
2023-01-13T05:50:40.264Z,7.87
2023-01-13T05:55:45.797Z,7.88
2023-01-13T06:00:50.490Z,7.87
2023-01-13T06:05:59.128Z,7.85
2023-01-13T06:11:03.453Z,7.87
2023-01-13T06:16:07.671Z,7.87
2023-01-13T06:21:11.678Z,7.92
2023-01-13T06:26:22.448Z,7.93
2023-01-13T06:31:29.102Z,7.89
2023-01-13T06:36:56.537Z,7.91
2023-01-13T06:42:18.932Z,7.93
2023-01-13T06:47:22.830Z,7.94
2023-01-13T06:52:27.902Z,7.96
2023-01-13T06:57:31.441Z,7.99
2023-01-13T07:02:35.128Z,8.00
2023-01-13T07:07:40.306Z,8.02
2023-01-13T07:13:03.024Z,8.02
2023-01-13T07:18:07.192Z,8.05
2023-01-13T07:23:11.083Z,8.05
2023-01-13T07:28:15.060Z,8.05
2023-01-13T07:33:19.271Z,8.08
2023-01-13T07:38:23.071Z,8.15
2023-01-13T07:43:33.118Z,8.19
2023-01-13T07:48:37.188Z,8.19
2023-01-13T07:53:41.502Z,8.17
2023-01-13T07:58:50.637Z,8.20
2023-01-13T08:03:56.697Z,8.21
2023-01-13T08:09:00.284Z,8.26
2023-01-13T08:14:04.242Z,8.24
2023-01-13T08:19:08.150Z,8.26
2023-01-13T08:24:12.218Z,8.29
2023-01-13T08:29:15.867Z,8.30
2023-01-13T08:34:19.833Z,8.34
2023-01-13T08:39:25.957Z,8.35
2023-01-13T08:44:32.713Z,8.35
2023-01-13T08:49:36.428Z,8.35
2023-01-13T08:54:40.923Z,8.37
2023-01-13T08:59:45.334Z,8.38
2023-01-13T09:04:50.322Z,8.40
2023-01-13T09:09:54.189Z,8.39
2023-01-13T09:14:58.648Z,8.41
2023-01-13T09:20:02.505Z,8.44
2023-01-13T09:25:07.460Z,8.48
2023-01-13T09:30:11.958Z,8.50
2023-01-13T09:35:17.757Z,8.50
2023-01-13T09:40:23.077Z,8.53
2023-01-13T09:45:38.169Z,8.60
2023-01-13T09:51:17.976Z,8.61
2023-01-13T09:56:23.373Z,8.64
2023-01-13T10:01:42.356Z,8.64
2023-01-13T10:06:58.198Z,8.61
2023-01-13T10:12:22.180Z,8.60
2023-01-13T10:17:44.656Z,8.59
2023-01-13T10:23:17.007Z,8.59
2023-01-13T10:28:24.217Z,8.61
2023-01-13T10:33:29.046Z,8.66
2023-01-13T10:38:35.985Z,8.68
2023-01-13T10:43:40.249Z,8.68
2023-01-13T10:48:58.900Z,8.71
2023-01-13T10:54:25.560Z,8.72
2023-01-13T10:59:30.200Z,8.74
2023-01-13T11:04:39.978Z,8.75
2023-01-13T11:09:43.841Z,8.74
2023-01-13T11:14:49.058Z,8.71
2023-01-13T11:20:14.273Z,8.72
2023-01-13T11:25:45.968Z,8.76
2023-01-13T11:31:19.872Z,8.78
2023-01-13T11:36:33.018Z,8.76
2023-01-13T11:41:47.297Z,8.77
2023-01-13T11:46:54.230Z,8.77
2023-01-13T11:52:50.165Z,8.75
2023-01-13T11:58:19.416Z,8.73
2023-01-13T12:03:38.883Z,8.77
2023-01-13T12:09:05.432Z,8.76
2023-01-13T12:14:49.367Z,8.78
2023-01-13T12:19:53.134Z,8.75
2023-01-13T12:25:21.535Z,8.75
2023-01-13T12:30:51.167Z,8.73
2023-01-13T12:36:21.636Z,8.70
2023-01-13T12:42:05.834Z,8.68
2023-01-13T12:47:39.362Z,8.71
2023-01-13T12:52:46.300Z,8.72
2023-01-13T12:58:03.265Z,8.71
2023-01-13T13:03:12.878Z,8.70
2023-01-13T13:08:38.119Z,8.68
2023-01-13T13:13:49.440Z,8.68
2023-01-13T13:19:20.384Z,8.67
2023-01-13T13:24:25.739Z,8.68
2023-01-13T13:29:53.751Z,8.71
2023-01-13T13:35:19.880Z,8.74
2023-01-13T13:40:43.445Z,8.79
2023-01-13T13:46:11.132Z,8.82
2023-01-13T13:51:46.725Z,8.84
2023-01-13T13:56:51.732Z,8.79
2023-01-13T14:02:04.100Z,8.78
2023-01-13T14:07:21.638Z,8.76
2023-01-13T14:12:28.032Z,8.71
2023-01-13T14:17:32.021Z,8.69
2023-01-13T14:22:37.699Z,8.68
2023-01-13T14:27:47.351Z,8.69
2023-01-13T14:32:58.118Z,8.67
2023-01-13T14:38:13.627Z,8.64
2023-01-13T14:43:24.995Z,8.63
2023-01-13T14:48:36.938Z,8.62
2023-01-13T14:53:47.645Z,8.60
2023-01-13T14:58:51.314Z,8.60
2023-01-13T15:03:55.985Z,8.60
2023-01-13T15:08:59.804Z,8.61
2023-01-13T15:14:11.817Z,8.61
2023-01-13T15:19:15.604Z,8.62
2023-01-13T15:24:19.290Z,8.62
2023-01-13T15:29:24.470Z,8.61
2023-01-13T15:34:28.425Z,8.61
2023-01-13T15:39:32.327Z,8.61
2023-01-13T15:44:54.745Z,8.61
2023-01-13T15:49:58.699Z,8.61
2023-01-13T15:55:02.407Z,8.60
2023-01-13T16:00:22.072Z,8.58
2023-01-13T16:05:26.582Z,8.56
2023-01-13T16:10:30.402Z,8.55
2023-01-13T16:15:34.229Z,8.57
2023-01-13T16:20:37.945Z,8.56
2023-01-13T16:25:45.243Z,8.55
2023-01-13T16:30:49.390Z,8.52
2023-01-13T16:36:10.934Z,8.49
2023-01-13T16:41:16.608Z,8.46
2023-01-13T16:46:26.388Z,8.44
2023-01-13T16:51:30.253Z,8.42
2023-01-13T16:56:37.313Z,8.39
2023-01-13T17:01:43.823Z,8.41
2023-01-13T17:07:07.118Z,8.41
2023-01-13T17:12:12.179Z,8.41
2023-01-13T17:17:28.878Z,8.44
2023-01-13T17:22:33.126Z,8.43
2023-01-13T17:27:37.275Z,8.45
2023-01-13T17:32:42.300Z,8.44
2023-01-13T17:37:46.415Z,8.45
2023-01-13T17:42:50.280Z,8.47
2023-01-13T17:48:00.417Z,8.47
2023-01-13T17:53:04.091Z,8.42
2023-01-13T17:58:08.969Z,8.40
2023-01-13T18:03:13.145Z,8.40
2023-01-13T18:08:17.620Z,8.40
2023-01-13T18:13:21.271Z,8.41
2023-01-13T18:18:24.965Z,8.41
2023-01-13T18:23:47.442Z,8.41
2023-01-13T18:28:51.280Z,8.40
2023-01-13T18:33:55.337Z,8.41
2023-01-13T18:38:59.080Z,8.45
2023-01-13T18:44:04.301Z,8.46
2023-01-13T18:49:08.234Z,8.43
2023-01-13T18:54:12.487Z,8.38
2023-01-13T18:59:18.124Z,8.35
2023-01-13T19:04:23.893Z,8.34
2023-01-13T19:09:31.802Z,8.33
2023-01-13T19:14:38.420Z,8.32
2023-01-13T19:19:49.428Z,8.28
2023-01-13T19:24:54.350Z,8.25
2023-01-13T19:30:01.889Z,8.25
2023-01-13T19:35:08.183Z,8.22
2023-01-13T19:40:16.172Z,8.19
2023-01-13T19:45:31.709Z,8.17
2023-01-13T19:50:40.276Z,8.10
2023-01-13T19:55:48.858Z,7.99
2023-01-13T20:00:54.837Z,7.88
2023-01-13T20:06:10.613Z,7.75
2023-01-13T20:11:33.709Z,7.62
2023-01-13T20:16:37.798Z,7.54
2023-01-13T20:21:43.830Z,7.45
2023-01-13T20:26:47.814Z,7.40
2023-01-13T20:31:51.929Z,7.33
2023-01-13T20:36:56.274Z,7.25
2023-01-13T20:42:18.782Z,7.19
2023-01-13T20:47:23.571Z,7.11
2023-01-13T20:52:29.155Z,7.05
2023-01-13T20:57:33.276Z,6.97
2023-01-13T21:02:38.976Z,6.90
2023-01-13T21:07:42.902Z,6.86
2023-01-13T21:13:05.818Z,6.83
2023-01-13T21:18:28.183Z,6.82
2023-01-13T21:23:32.097Z,6.77
2023-01-13T21:28:37.238Z,6.75
2023-01-13T21:33:41.109Z,6.72
2023-01-13T21:38:44.998Z,6.70
2023-01-13T21:44:07.656Z,6.68
2023-01-13T21:49:11.884Z,6.67
2023-01-13T21:54:15.614Z,6.68
2023-01-13T21:59:20.164Z,6.67
2023-01-13T22:04:23.902Z,6.65
2023-01-13T22:09:27.636Z,6.60
2023-01-13T22:14:31.501Z,6.56
2023-01-13T22:19:39.503Z,6.53
2023-01-13T22:24:44.313Z,6.46
2023-01-13T22:29:50.084Z,6.41
2023-01-13T22:34:53.847Z,6.40
2023-01-13T22:39:57.528Z,6.37
2023-01-13T22:45:01.367Z,6.37
2023-01-13T22:50:07.863Z,6.38
2023-01-13T22:55:11.725Z,6.35
2023-01-13T23:00:19.461Z,6.35
2023-01-13T23:05:23.522Z,6.31
2023-01-13T23:10:27.329Z,6.28
2023-01-13T23:15:31.436Z,6.23
2023-01-13T23:20:35.301Z,6.22
2023-01-13T23:25:39.090Z,6.26
2023-01-13T23:30:42.720Z,6.28
2023-01-13T23:36:19.389Z,6.32
2023-01-13T23:41:26.176Z,6.34
2023-01-13T23:46:33.499Z,6.38
2023-01-13T23:51:37.443Z,6.38
2023-01-13T23:56:41.348Z,6.38
